Time;durP1;ratioP1;P1;durP2;ratioP2;P2;SDS_P1;SDS_P2;PMS_P1;PMS_P2;Temp;Humidity;BMP_temperature;BMP_pressure;BME280_temperature;BME280_humidity;BME280_pressure;Samples;Min_cycle;Max_cycle;Signal;HPM_P1;HPM_P2
2023/06/14 00:01:48;;;;;;;4.45;4.15;;;20.50;80.90;;;;;;5124314;22;20254;-59
2023/06/14 00:04:17;;;;;;;4.60;4.30;;;20.40;81.20;;;;;;5114400;28;20205;-59
2023/06/14 00:06:45;;;;;;;4.78;4.25;;;20.40;81.40;;;;;;5113994;28;20665;-59
2023/06/14 00:09:13;;;;;;;5.32;4.03;;;20.40;81.70;;;;;;5114177;28;20231;-59
2023/06/14 00:11:42;;;;;;;5.00;4.38;;;20.30;81.80;;;;;;5095917;28;20662;-59
2023/06/14 00:14:09;;;;;;;5.35;4.00;;;20.30;82.20;;;;;;5093865;28;20349;-59
2023/06/14 00:16:42;;;;;;;10.60;3.92;;;20.30;82.30;;;;;;5093705;28;20208;-59
2023/06/14 00:19:10;;;;;;;6.80;4.60;;;20.30;82.50;;;;;;5093693;28;20631;-59
2023/06/14 00:21:38;;;;;;;5.45;4.53;;;20.30;83.40;;;;;;5093610;28;20269;-59
2023/06/14 00:24:06;;;;;;;8.20;4.38;;;20.20;83.30;;;;;;5093439;28;20204;-59
2023/06/14 00:26:34;;;;;;;8.45;4.80;;;20.20;83.60;;;;;;5100103;28;20302;-59
2023/06/14 00:29:02;;;;;;;15.00;4.88;;;20.20;83.90;;;;;;5113925;28;20203;-59
2023/06/14 00:31:30;;;;;;;9.75;4.30;;;20.10;83.70;;;;;;5113857;28;20268;-59
2023/06/14 00:34:00;;;;;;;6.32;4.32;;;20.00;83.70;;;;;;5111532;28;20219;-59
2023/06/14 00:36:28;;;;;;;5.68;4.38;;;20.00;84.20;;;;;;5105784;28;20315;-60
2023/06/14 00:38:55;;;;;;;4.70;4.30;;;20.00;84.60;;;;;;5093068;28;20283;-59
2023/06/14 00:41:23;;;;;;;7.03;4.20;;;19.90;84.80;;;;;;5100320;28;20366;-59
2023/06/14 00:43:51;;;;;;;4.35;3.97;;;19.90;85.00;;;;;;5113606;28;20727;-59
2023/06/14 00:46:19;;;;;;;5.57;4.80;;;19.90;85.10;;;;;;5113197;28;20302;-59
2023/06/14 00:48:47;;;;;;;4.95;4.50;;;19.80;85.70;;;;;;5110621;28;20404;-59
2023/06/14 00:51:17;;;;;;;6.10;4.40;;;19.80;85.90;;;;;;5101110;28;20310;-59
2023/06/14 00:53:46;;;;;;;5.25;4.10;;;19.80;86.10;;;;;;5111242;28;20697;-59
2023/06/14 00:56:14;;;;;;;5.07;4.47;;;19.80;86.50;;;;;;5113131;28;20203;-59
2023/06/14 00:58:42;;;;;;;7.50;4.35;;;19.70;86.80;;;;;;5113234;28;20250;-59
2023/06/14 01:01:10;;;;;;;6.57;4.47;;;19.70;87.30;;;;;;5100277;28;20668;-59
2023/06/14 01:03:39;;;;;;;7.40;4.15;;;19.70;87.40;;;;;;5092691;28;20292;-59
2023/06/14 01:06:14;;;;;;;5.25;4.25;;;19.70;88.10;;;;;;5092297;28;20211;-59
2023/06/14 01:08:46;;;;;;;5.22;4.70;;;19.60;88.10;;;;;;5092928;28;20200;-59
2023/06/14 01:11:17;;;;;;;4.53;3.95;;;19.60;88.30;;;;;;5093459;28;20255;-59
2023/06/14 01:13:47;;;;;;;6.47;3.83;;;19.60;88.70;;;;;;5104352;28;20718;-59
2023/06/14 01:16:15;;;;;;;8.10;4.25;;;19.60;88.90;;;;;;5107423;28;20231;-59
2023/06/14 01:18:47;;;;;;;8.82;4.10;;;19.50;89.00;;;;;;5104584;28;20222;-59
2023/06/14 01:21:22;;;;;;;5.13;4.05;;;19.50;89.30;;;;;;5112671;28;20860;-59
2023/06/14 01:23:52;;;;;;;6.07;3.92;;;19.50;89.60;;;;;;5112861;28;20750;-59
2023/06/14 01:26:21;;;;;;;4.40;3.90;;;19.50;90.00;;;;;;5112455;28;20203;-59
2023/06/14 01:28:50;;;;;;;7.43;3.92;;;19.40;90.00;;;;;;5112677;28;20250;-59
2023/06/14 01:31:21;;;;;;;6.25;4.30;;;19.40;90.40;;;;;;5112496;28;20272;-59
2023/06/14 01:33:49;;;;;;;7.38;4.18;;;19.40;90.50;;;;;;5112468;28;20219;-59
2023/06/14 01:36:18;;;;;;;4.88;4.32;;;19.40;90.60;;;;;;5112333;28;20686;-59
2023/06/14 01:38:46;;;;;;;6.38;4.07;;;19.30;90.50;;;;;;5112509;28;20239;-59
2023/06/14 01:41:15;;;;;;;6.45;4.43;;;19.30;90.80;;;;;;5112366;28;20269;-59
2023/06/14 01:43:43;;;;;;;4.25;3.95;;;19.30;90.90;;;;;;5112622;28;20287;-59
2023/06/14 01:46:11;;;;;;;4.03;3.72;;;19.30;91.20;;;;;;5112274;28;20250;-59
2023/06/14 01:48:39;;;;;;;4.50;4.07;;;19.20;91.40;;;;;;5110877;28;20575;-59
2023/06/14 01:51:07;;;;;;;5.70;4.18;;;19.20;91.60;;;;;;5091138;28;20224;-59
2023/06/14 01:53:36;;;;;;;6.90;4.25;;;19.10;91.80;;;;;;5091898;28;20315;-58
2023/06/14 01:56:03;;;;;;;5.85;4.43;;;19.10;92.00;;;;;;5091526;28;20204;-59
2023/06/14 01:58:33;;;;;;;4.75;4.18;;;19.10;92.50;;;;;;5092140;28;20239;-59
2023/06/14 02:01:02;;;;;;;5.57;4.35;;;19.00;92.20;;;;;;5091110;28;20227;-59
2023/06/14 02:03:30;;;;;;;7.82;4.40;;;19.00;92.30;;;;;;5091949;28;20200;-59
2023/06/14 02:05:58;;;;;;;4.28;3.95;;;19.00;92.50;;;;;;5091301;28;20203;-59
2023/06/14 02:08:26;;;;;;;5.20;4.05;;;19.00;92.70;;;;;;5091591;28;20261;-59
2023/06/14 02:10:54;;;;;;;8.43;4.57;;;18.90;92.90;;;;;;5091542;28;20656;-59
2023/06/14 02:13:21;;;;;;;4.38;4.00;;;18.90;93.00;;;;;;5093850;28;20286;-59
2023/06/14 02:15:54;;;;;;;4.30;3.90;;;18.90;93.10;;;;;;5109453;28;20227;-59
2023/06/14 02:18:22;;;;;;;6.53;4.55;;;18.80;93.40;;;;;;5099522;28;20204;-59
2023/06/14 02:20:50;;;;;;;6.45;4.03;;;18.80;93.70;;;;;;5103074;28;20215;-59
2023/06/14 02:23:18;;;;;;;7.10;4.25;;;18.80;93.80;;;;;;5111900;28;20633;-59
2023/06/14 02:25:46;;;;;;;3.95;3.72;;;18.80;93.90;;;;;;5111714;28;20207;-59
2023/06/14 02:28:14;;;;;;;6.28;3.92;;;18.70;93.90;;;;;;5111804;28;20701;-60
2023/06/14 02:30:42;;;;;;;4.22;3.83;;;18.70;94.10;;;;;;5111633;28;20656;-59
2023/06/14 02:33:12;;;;;;;4.50;4.10;;;18.70;94.10;;;;;;5106588;28;20254;-59
2023/06/14 02:35:41;;;;;;;6.50;3.83;;;18.60;94.50;;;;;;5108608;28;20231;-59
2023/06/14 02:38:09;;;;;;;7.57;4.13;;;18.60;94.90;;;;;;5112004;28;20260;-59
2023/06/14 02:40:37;;;;;;;6.93;3.95;;;18.60;94.90;;;;;;5111742;28;20261;-59
2023/06/14 02:43:05;;;;;;;4.55;4.07;;;18.50;95.10;;;;;;5102745;28;20585;-59
2023/06/14 02:45:33;;;;;;;7.07;3.83;;;18.50;95.30;;;;;;5111385;28;20636;-59
2023/06/14 02:48:01;;;;;;;4.53;3.65;;;18.40;95.50;;;;;;5102252;28;20666;-59
2023/06/14 02:50:30;;;;;;;9.25;4.15;;;18.40;95.50;;;;;;5102979;28;20227;-59
2023/06/14 02:52:58;;;;;;;4.85;3.72;;;18.40;95.80;;;;;;5111657;28;20653;-58
2023/06/14 02:55:26;;;;;;;6.88;4.07;;;18.30;95.90;;;;;;5111455;28;20223;-59
2023/06/14 02:57:54;;;;;;;11.18;3.78;;;18.30;96.20;;;;;;5111537;28;20224;-58
2023/06/14 03:00:23;;;;;;;8.45;3.63;;;18.30;96.50;;;;;;5111276;28;20270;-59
2023/06/14 03:02:52;;;;;;;6.10;3.70;;;18.30;96.70;;;;;;5107820;28;20195;-59
2023/06/14 03:05:21;;;;;;;12.80;3.88;;;18.30;96.70;;;;;;5105589;28;20624;-59
2023/06/14 03:07:50;;;;;;;8.05;3.63;;;18.20;96.80;;;;;;5111735;28;20208;-59
2023/06/14 03:10:18;;;;;;;4.43;3.47;;;18.20;97.10;;;;;;5111359;28;20226;-59
2023/06/14 03:12:47;;;;;;;5.88;3.53;;;18.20;97.00;;;;;;5113323;28;20204;-59
2023/06/14 03:15:15;;;;;;;5.25;3.70;;;18.20;97.00;;;;;;5108345;28;20320;-59
2023/06/14 03:17:45;;;;;;;7.78;3.70;;;18.20;97.00;;;;;;5111775;28;20269;-59
2023/06/14 03:20:14;;;;;;;6.40;3.70;;;18.20;97.00;;;;;;5108690;28;20643;-59
2023/06/14 03:22:45;;;;;;;6.07;3.55;;;18.20;97.00;;;;;;5115234;28;20697;-59
2023/06/14 03:25:15;;;;;;;4.25;3.70;;;18.20;97.00;;;;;;5114822;28;20278;-59
2023/06/14 03:27:43;;;;;;;5.05;3.47;;;18.20;96.90;;;;;;5114971;28;20211;-59
2023/06/14 03:30:11;;;;;;;4.25;3.60;;;18.20;97.00;;;;;;5115138;28;20219;-59
2023/06/14 03:32:39;;;;;;;4.10;3.70;;;18.20;97.10;;;;;;5114994;28;20259;-58
2023/06/14 03:35:08;;;;;;;4.28;3.88;;;18.20;96.90;;;;;;5114392;28;20219;-59
2023/06/14 03:37:36;;;;;;;4.80;3.08;;;18.20;97.10;;;;;;5114988;28;20200;-59
2023/06/14 03:40:06;;;;;;;4.10;3.28;;;18.20;97.00;;;;;;5114558;28;20290;-59
2023/06/14 03:42:36;;;;;;;4.85;3.55;;;18.10;97.00;;;;;;5115129;28;20282;-59
2023/06/14 03:45:04;;;;;;;4.47;3.10;;;18.10;97.30;;;;;;5105920;28;20199;-59
2023/06/14 03:47:32;;;;;;;6.05;3.72;;;18.10;98.10;;;;;;5114774;28;20230;-59
2023/06/14 03:50:01;;;;;;;8.25;3.97;;;18.10;98.20;;;;;;5101537;28;20291;-59
2023/06/14 03:52:28;;;;;;;5.25;3.05;;;18.10;97.70;;;;;;5094112;28;20740;-59
2023/06/14 03:54:56;;;;;;;8.52;3.63;;;18.10;97.70;;;;;;5093588;28;20314;-59
2023/06/14 03:57:45;;;;;;;4.35;3.17;;;18.00;97.60;;;;;;5094023;28;20685;-59
2023/06/14 04:00:15;;;;;;;5.53;3.42;;;18.00;97.70;;;;;;5093898;28;20293;-59
2023/06/14 04:02:43;;;;;;;4.10;3.30;;;18.00;98.20;;;;;;5094098;28;20208;-59
2023/06/14 04:05:12;;;;;;;4.43;3.38;;;18.00;98.20;;;;;;5093278;28;20200;-59
2023/06/14 04:07:44;;;;;;;8.70;3.63;;;18.00;98.10;;;;;;5094649;28;20378;-59
2023/06/14 04:10:12;;;;;;;6.97;3.63;;;18.00;98.30;;;;;;5105254;28;20394;-59
2023/06/14 04:12:40;;;;;;;9.50;3.22;;;18.00;98.30;;;;;;5113518;28;20282;-59
2023/06/14 04:15:13;;;;;;;5.85;3.58;;;18.00;98.30;;;;;;5105153;28;20254;-59
2023/06/14 04:17:48;;;;;;;5.22;3.63;;;18.00;98.40;;;;;;5111621;28;20203;-59
2023/06/14 04:20:16;;;;;;;4.13;3.10;;;18.00;98.50;;;;;;5108092;28;20223;-59
2023/06/14 04:22:44;;;;;;;3.63;3.38;;;18.00;98.90;;;;;;5113673;28;20203;-59
2023/06/14 04:25:13;;;;;;;4.10;3.60;;;18.00;99.20;;;;;;5105750;28;20493;-59
2023/06/14 04:27:41;;;;;;;8.20;3.15;;;18.00;99.50;;;;;;5113194;28;20203;-59
2023/06/14 04:30:10;;;;;;;5.45;3.85;;;18.00;99.30;;;;;;5113389;28;20264;-59
2023/06/14 04:32:39;;;;;;;3.38;3.08;;;18.00;99.30;;;;;;5105550;28;20268;-59
2023/06/14 04:35:08;;;;;;;3.92;3.58;;;18.00;99.70;;;;;;5106015;28;20218;-59
2023/06/14 04:37:39;;;;;;;3.58;3.10;;;18.00;99.80;;;;;;5105262;28;20207;-59
2023/06/14 04:40:09;;;;;;;10.90;3.47;;;17.90;99.90;;;;;;5113484;28;20643;-59
2023/06/14 04:42:40;;;;;;;5.70;3.58;;;18.00;99.90;;;;;;5113530;28;20290;-59
2023/06/14 04:45:09;;;;;;;9.70;3.30;;;18.00;99.90;;;;;;5113371;28;20248;-59
2023/06/14 04:47:40;;;;;;;3.60;3.28;;;18.00;99.90;;;;;;5103363;28;20196;-58
2023/06/14 04:50:10;;;;;;;7.60;3.97;;;18.00;99.90;;;;;;5092997;28;20220;-59
2023/06/14 04:52:38;;;;;;;11.43;3.72;;;18.00;99.90;;;;;;5092827;28;20204;-59
2023/06/14 04:55:06;;;;;;;4.75;3.00;;;18.00;99.90;;;;;;5092399;28;20276;-58
2023/06/14 04:57:34;;;;;;;5.25;3.10;;;18.00;99.90;;;;;;5101840;28;20217;-59
2023/06/14 05:00:04;;;;;;;7.95;3.25;;;18.00;99.90;;;;;;5112892;28;20581;-59
2023/06/14 05:02:32;;;;;;;10.02;3.40;;;18.10;99.90;;;;;;5113207;28;20207;-59
2023/06/14 05:05:01;;;;;;;3.33;3.10;;;18.20;99.90;;;;;;5112721;28;20209;-59
2023/06/14 05:07:29;;;;;;;4.78;3.55;;;18.60;99.90;;;;;;5112843;28;20243;-59
2023/06/14 05:09:57;;;;;;;3.38;3.10;;;19.00;99.90;;;;;;5102630;28;20304;-59
2023/06/14 05:12:25;;;;;;;3.55;3.25;;;19.40;99.90;;;;;;5104734;28;20248;-56
2023/06/14 05:14:53;;;;;;;3.80;3.00;;;19.60;99.90;;;;;;5105491;28;20199;-55
2023/06/14 05:17:22;;;;;;;3.95;3.08;;;19.80;99.90;;;;;;5096327;28;20208;-58
2023/06/14 05:19:50;;;;;;;5.47;3.53;;;19.90;99.90;;;;;;5111425;28;20605;-58
2023/06/14 05:22:19;;;;;;;3.80;3.35;;;19.90;99.90;;;;;;5112589;28;20203;-59
2023/06/14 05:24:48;;;;;;;7.93;3.55;;;19.90;99.90;;;;;;5104294;28;20203;-58
2023/06/14 05:27:17;;;;;;;5.80;3.42;;;19.90;99.90;;;;;;5111975;28;20208;-57
2023/06/14 05:29:45;;;;;;;4.38;3.08;;;20.00;99.90;;;;;;5103583;28;20276;-59
2023/06/14 05:32:13;;;;;;;6.32;3.88;;;20.00;99.90;;;;;;5103495;28;20646;-58
2023/06/14 05:34:41;;;;;;;9.88;3.92;;;20.10;99.90;;;;;;5109582;28;20260;-58
2023/06/14 05:37:09;;;;;;;4.72;3.08;;;20.10;99.90;;;;;;5112717;28;20403;-57
2023/06/14 05:39:38;;;;;;;4.78;3.17;;;20.10;99.90;;;;;;5112578;28;20678;-59
2023/06/14 05:42:07;;;;;;;5.40;2.92;;;20.20;99.90;;;;;;5106502;28;20227;-58
2023/06/14 05:44:34;;;;;;;5.82;3.30;;;20.20;99.90;;;;;;5104798;28;20272;-58
2023/06/14 05:47:02;;;;;;;5.70;3.45;;;20.20;99.90;;;;;;5108028;28;20250;-57
2023/06/14 05:49:30;;;;;;;6.78;3.08;;;20.20;99.90;;;;;;5105360;28;20214;-59
2023/06/14 05:51:58;;;;;;;4.93;3.30;;;20.30;99.90;;;;;;5106727;28;20219;-59
2023/06/14 05:54:26;;;;;;;6.68;2.80;;;20.20;99.90;;;;;;5109646;28;20272;-59
2023/06/14 05:56:55;;;;;;;4.65;3.15;;;20.20;99.90;;;;;;5107123;28;20256;-58
2023/06/14 05:59:23;;;;;;;4.20;2.95;;;20.20;99.90;;;;;;5106542;28;20722;-57
2023/06/14 06:01:51;;;;;;;10.00;3.38;;;20.20;99.90;;;;;;5116416;22;20306;-53
2023/06/14 06:04:19;;;;;;;4.25;2.63;;;20.20;99.90;;;;;;5097299;28;20717;-53
2023/06/14 06:06:47;;;;;;;6.45;3.05;;;20.20;99.90;;;;;;5091626;28;20222;-53
2023/06/14 06:09:15;;;;;;;7.13;3.13;;;20.30;99.90;;;;;;5092026;28;20215;-53
2023/06/14 06:11:43;;;;;;;11.55;3.65;;;20.30;99.80;;;;;;5091714;28;20227;-55
2023/06/14 06:14:22;;;;;;;5.57;2.67;;;20.30;99.50;;;;;;5091524;28;20564;-56
2023/06/14 06:16:50;;;;;;;4.95;3.00;;;20.30;99.60;;;;;;5091675;28;20224;-54
2023/06/14 06:19:18;;;;;;;3.70;3.17;;;20.30;99.60;;;;;;5091894;28;20200;-53
2023/06/14 06:21:45;;;;;;;7.97;3.40;;;20.30;99.90;;;;;;5091676;28;20262;-55
2023/06/14 06:24:13;;;;;;;4.82;2.97;;;20.30;99.90;;;;;;5091456;28;20211;-54
2023/06/14 06:26:41;;;;;;;6.68;3.50;;;20.30;99.90;;;;;;5091260;28;20211;-55
2023/06/14 06:29:10;;;;;;;7.05;3.03;;;20.20;99.90;;;;;;5090402;28;20208;-55
2023/06/14 06:31:39;;;;;;;6.28;3.40;;;20.00;99.90;;;;;;5089799;28;20223;-55
2023/06/14 06:34:07;;;;;;;3.90;2.97;;;19.90;99.90;;;;;;5089946;28;20211;-55
2023/06/14 06:36:35;;;;;;;5.10;3.13;;;19.80;99.90;;;;;;5089353;28;20247;-56
2023/06/14 06:39:09;;;;;;;7.43;2.80;;;19.80;99.90;;;;;;5089789;28;20263;-58
2023/06/14 06:41:37;;;;;;;6.00;3.22;;;19.80;99.90;;;;;;5089966;28;20266;-54
2023/06/14 06:44:05;;;;;;;9.65;3.53;;;19.80;99.90;;;;;;5091152;28;20300;-55
2023/06/14 06:46:33;;;;;;;5.63;3.15;;;19.80;99.90;;;;;;5092859;28;20257;-54
2023/06/14 06:49:03;;;;;;;4.43;2.85;;;19.80;99.90;;;;;;5095335;28;20574;-57
2023/06/14 06:51:31;;;;;;;6.90;3.08;;;19.80;99.90;;;;;;5095412;28;20224;-54
2023/06/14 06:53:59;;;;;;;5.93;3.75;;;19.90;99.90;;;;;;5095396;28;20269;-55
2023/06/14 06:56:26;;;;;;;6.35;3.03;;;19.90;99.90;;;;;;5094302;28;20314;-54
2023/06/14 06:58:54;;;;;;;3.88;3.05;;;20.00;99.90;;;;;;5095098;28;20261;-55
2023/06/14 07:01:24;;;;;;;5.13;3.13;;;20.00;99.90;;;;;;5094956;28;20289;-55
2023/06/14 07:03:52;;;;;;;7.15;3.33;;;20.10;99.90;;;;;;5095473;28;20207;-56
2023/06/14 07:06:21;;;;;;;4.55;3.15;;;20.10;99.90;;;;;;5095036;28;20234;-58
2023/06/14 07:08:49;;;;;;;4.50;3.03;;;20.20;99.90;;;;;;5095756;28;20204;-54
2023/06/14 07:11:17;;;;;;;4.25;2.80;;;20.20;99.90;;;;;;5096602;28;20224;-53
2023/06/14 07:13:45;;;;;;;3.45;3.15;;;20.30;99.90;;;;;;5096221;28;20261;-54
2023/06/14 07:16:13;;;;;;;3.92;3.42;;;20.40;99.90;;;;;;5094638;28;20220;-55
2023/06/14 07:18:41;;;;;;;5.20;3.22;;;20.60;99.90;;;;;;5095255;28;20215;-56
2023/06/14 07:21:08;;;;;;;7.28;2.95;;;20.70;99.90;;;;;;5094270;28;20277;-54
2023/06/14 07:23:38;;;;;;;4.85;3.60;;;20.60;99.90;;;;;;5094831;28;20204;-54
2023/06/14 07:26:06;;;;;;;7.28;2.63;;;20.60;99.90;;;;;;5094755;28;20256;-54
2023/06/14 07:28:34;;;;;;;5.32;2.95;;;20.70;99.90;;;;;;5093962;28;20199;-55
2023/06/14 07:31:04;;;;;;;3.50;3.22;;;20.70;99.90;;;;;;5093620;28;20306;-54
2023/06/14 07:33:32;;;;;;;4.13;2.83;;;20.60;99.90;;;;;;5094777;28;20699;-53
2023/06/14 07:36:00;;;;;;;4.97;2.45;;;20.60;99.90;;;;;;5094244;28;20261;-55
2023/06/14 07:38:28;;;;;;;3.13;2.85;;;20.70;99.90;;;;;;5094818;28;20232;-56
2023/06/14 07:40:58;;;;;;;8.05;2.53;;;20.80;99.90;;;;;;5094853;28;20311;-55
2023/06/14 07:43:25;;;;;;;6.00;2.85;;;20.80;99.90;;;;;;5094549;28;20254;-56
2023/06/14 07:45:53;;;;;;;8.60;2.88;;;20.90;99.90;;;;;;5094130;28;20199;-55
2023/06/14 07:48:34;;;;;;;7.93;2.92;;;21.00;99.90;;;;;;5095343;28;20693;-55
2023/06/14 07:51:03;;;;;;;4.10;2.53;;;21.00;99.90;;;;;;5114683;28;20263;-55
2023/06/14 07:53:31;;;;;;;3.72;2.45;;;21.10;99.90;;;;;;5115076;28;20391;-55
2023/06/14 07:56:01;;;;;;;7.88;2.70;;;21.10;99.50;;;;;;5114601;28;20229;-58
2023/06/14 07:58:29;;;;;;;2.45;2.17;;;21.00;99.90;;;;;;5113685;28;20235;-55
2023/06/14 08:00:56;;;;;;;5.28;2.60;;;21.20;99.90;;;;;;5114501;28;20315;-55
2023/06/14 08:03:24;;;;;;;2.92;2.65;;;21.20;99.90;;;;;;5114743;28;20231;-55
2023/06/14 08:05:52;;;;;;;3.30;2.50;;;21.20;99.50;;;;;;5114371;28;20203;-55
2023/06/14 08:08:21;;;;;;;4.13;2.38;;;21.40;99.90;;;;;;5114498;28;20206;-55
2023/06/14 08:10:48;;;;;;;3.10;2.60;;;21.50;99.90;;;;;;5114307;28;20242;-56
2023/06/14 08:13:18;;;;;;;2.35;2.25;;;21.60;99.90;;;;;;5114558;28;20183;-54
2023/06/14 08:15:46;;;;;;;4.65;2.78;;;21.70;99.90;;;;;;5114217;28;20203;-59
2023/06/14 08:18:14;;;;;;;3.83;2.17;;;21.80;99.90;;;;;;5114182;28;20698;-56
2023/06/14 08:20:43;;;;;;;4.30;2.30;;;21.90;99.90;;;;;;5114034;28;20583;-55
2023/06/14 08:23:11;;;;;;;4.45;2.20;;;21.90;99.60;;;;;;5114141;28;20211;-55
2023/06/14 08:25:39;;;;;;;3.78;2.50;;;22.00;99.90;;;;;;5113347;28;20290;-57
2023/06/14 08:28:09;;;;;;;2.92;1.52;;;22.10;99.20;;;;;;5114406;28;20202;-56
2023/06/14 08:30:38;;;;;;;3.40;1.73;;;22.20;98.40;;;;;;5114120;28;20202;-57
2023/06/14 08:33:06;;;;;;;2.38;1.67;;;22.20;97.80;;;;;;5114089;28;20246;-58
2023/06/14 08:35:44;;;;;;;2.92;1.50;;;22.20;98.10;;;;;;5113865;28;20214;-55
2023/06/14 08:38:12;;;;;;;1.80;1.70;;;22.30;98.00;;;;;;5113753;28;20272;-55
2023/06/14 08:40:40;;;;;;;3.25;1.50;;;22.40;97.40;;;;;;5113785;28;20199;-56
2023/06/14 08:43:08;;;;;;;1.80;1.67;;;22.40;97.80;;;;;;5113861;28;20246;-55
2023/06/14 08:45:37;;;;;;;1.70;1.60;;;22.50;97.60;;;;;;5113461;28;20209;-55
2023/06/14 08:48:09;;;;;;;2.50;1.25;;;22.50;97.40;;;;;;5113774;28;20244;-55
2023/06/14 08:50:38;;;;;;;1.60;1.10;;;22.60;97.50;;;;;;5094269;28;20204;-56
2023/06/14 08:53:06;;;;;;;7.40;2.08;;;22.60;96.00;;;;;;5093860;28;20212;-55
2023/06/14 08:55:37;;;;;;;2.30;1.50;;;22.70;97.00;;;;;;5112799;28;20253;-55
2023/06/14 08:58:14;;;;;;;6.38;2.22;;;22.80;96.00;;;;;;5100157;28;20310;-55
2023/06/14 09:00:44;;;;;;;4.03;1.88;;;22.70;97.80;;;;;;5092736;28;20257;-54
2023/06/14 09:03:14;;;;;;;2.33;1.50;;;22.80;98.90;;;;;;5101901;28;20211;-54
2023/06/14 09:05:43;;;;;;;2.60;1.90;;;22.80;96.60;;;;;;5111136;28;20204;-54
2023/06/14 09:08:11;;;;;;;3.42;1.60;;;22.90;97.90;;;;;;5110502;28;20260;-55
2023/06/14 09:10:39;;;;;;;3.13;1.58;;;22.90;96.00;;;;;;5109456;28;20273;-57
2023/06/14 09:13:07;;;;;;;2.78;1.40;;;23.00;96.40;;;;;;5105909;28;20277;-56
2023/06/14 09:15:36;;;;;;;5.35;1.55;;;23.10;96.40;;;;;;5105831;28;20221;-56
2023/06/14 09:18:05;;;;;;;2.25;1.80;;;23.20;97.60;;;;;;5109641;28;20227;-56
2023/06/14 09:20:33;;;;;;;4.38;1.65;;;23.40;97.80;;;;;;5109112;28;20743;-57
2023/06/14 09:23:01;;;;;;;7.30;1.90;;;23.50;95.80;;;;;;5110885;28;20260;-54
2023/06/14 09:25:30;;;;;;;2.55;1.40;;;23.70;96.50;;;;;;5110207;28;20203;-60
2023/06/14 09:28:07;;;;;;;3.20;1.42;;;23.80;97.40;;;;;;5104253;28;20294;-54
2023/06/14 09:30:36;;;;;;;4.43;1.58;;;23.90;95.90;;;;;;5109837;28;20199;-54
2023/06/14 09:33:05;;;;;;;3.15;1.50;;;23.70;95.70;;;;;;5112450;28;20226;-57
2023/06/14 09:35:33;;;;;;;3.40;1.50;;;23.70;95.30;;;;;;5101193;28;20233;-55
2023/06/14 09:38:01;;;;;;;2.85;1.20;;;23.90;96.30;;;;;;5112104;28;20302;-55
2023/06/14 09:40:29;;;;;;;1.55;1.45;;;23.70;94.30;;;;;;5112227;28;20203;-57
2023/06/14 09:42:57;;;;;;;2.13;1.15;;;23.40;95.50;;;;;;5104779;28;20654;-56
2023/06/14 09:45:29;;;;;;;1.50;1.35;;;23.30;95.70;;;;;;5100056;28;20231;-54
2023/06/14 09:47:57;;;;;;;2.67;1.30;;;23.30;95.90;;;;;;5103724;28;20279;-56
2023/06/14 09:50:35;;;;;;;1.40;1.33;;;23.60;97.80;;;;;;5099843;28;20202;-58
2023/06/14 09:53:06;;;;;;;2.78;1.27;;;24.10;96.70;;;;;;5110820;28;20255;-56
2023/06/14 09:55:35;;;;;;;1.27;1.23;;;24.50;94.50;;;;;;5110575;28;20329;-56
2023/06/14 09:58:05;;;;;;;1.60;1.20;;;24.70;93.30;;;;;;5110643;28;20593;-56
2023/06/14 10:00:34;;;;;;;3.58;1.35;;;25.00;95.20;;;;;;5109272;28;20202;-58
2023/06/14 10:03:06;;;;;;;1.65;1.10;;;25.40;95.30;;;;;;5104133;28;20253;-59
2023/06/14 10:05:36;;;;;;;1.40;1.30;;;25.80;93.10;;;;;;5110486;28;20207;-57
2023/06/14 10:08:05;;;;;;;4.43;1.13;;;26.10;92.40;;;;;;5092959;28;20200;-56
2023/06/14 10:10:33;;;;;;;1.48;1.38;;;26.30;92.40;;;;;;5111550;28;20238;-59
2023/06/14 10:13:01;;;;;;;1.15;1.10;;;26.50;92.30;;;;;;5100341;28;20257;-60
2023/06/14 10:15:32;;;;;;;2.45;1.10;;;26.60;91.50;;;;;;5107589;28;20754;-59
2023/06/14 10:18:02;;;;;;;3.38;1.42;;;26.70;92.20;;;;;;5110503;28;20220;-57
2023/06/14 10:20:34;;;;;;;2.47;1.50;;;26.70;91.90;;;;;;5100952;28;20226;-57
2023/06/14 10:23:08;;;;;;;2.30;1.50;;;26.80;91.30;;;;;;5098229;28;20199;-56
2023/06/14 10:25:36;;;;;;;2.58;1.33;;;26.90;90.80;;;;;;5099609;28;20570;-57
2023/06/14 10:28:17;;;;;;;1.50;1.45;;;26.90;90.50;;;;;;5110951;28;20207;-59
2023/06/14 10:31:07;;;;;;;1.77;1.20;;;27.00;90.30;;;;;;5109103;28;20207;-57
2023/06/14 10:33:36;;;;;;;2.50;1.10;;;27.20;91.30;;;;;;5106015;28;20724;-56
2023/06/14 10:36:28;;;;;;;2.97;1.40;;;27.40;88.00;;;;;;5104112;28;20257;-58
2023/06/14 10:39:02;;;;;;;1.42;1.30;;;27.60;87.20;;;;;;5092301;28;20613;-60
2023/06/14 10:41:30;;;;;;;1.23;1.15;;;27.70;86.60;;;;;;5091660;28;20677;-57
2023/06/14 10:44:38;;;;;;;2.50;1.20;;;27.90;83.00;;;;;;5097940;28;20283;-57
2023/06/14 10:47:11;;;;;;;3.13;1.30;;;27.90;80.20;;;;;;5093618;28;20203;-60
2023/06/14 10:49:41;;;;;;;1.50;1.20;;;28.10;80.20;;;;;;5104779;28;20282;-56
2023/06/14 10:52:16;;;;;;;1.30;1.20;;;28.20;77.70;;;;;;5110446;28;20225;-56
2023/06/14 10:55:12;;;;;;;3.05;1.35;;;28.30;80.30;;;;;;5109014;28;20229;-58
2023/06/14 10:57:41;;;;;;;2.05;1.33;;;28.30;80.50;;;;;;5109714;28;20206;-57
2023/06/14 11:00:15;;;;;;;2.55;1.50;;;28.70;81.80;;;;;;5106425;28;20259;-55
2023/06/14 11:03:18;;;;;;;2.78;1.40;;;28.90;80.20;;;;;;5110624;28;20359;-57
2023/06/14 11:05:50;;;;;;;2.50;1.33;;;28.60;74.80;;;;;;5078078;28;20200;-56
2023/06/14 11:08:38;;;;;;;1.67;1.40;;;27.70;77.00;;;;;;5098937;28;20211;-56
2023/06/14 11:11:08;;;;;;;1.50;1.40;;;27.60;78.40;;;;;;5103033;28;20224;-57
2023/06/14 11:13:38;;;;;;;3.33;1.33;;;27.80;80.40;;;;;;5102475;28;20196;-54
2023/06/14 11:16:11;;;;;;;5.60;1.83;;;28.20;80.60;;;;;;5097635;28;20273;-57
2023/06/14 11:18:40;;;;;;;1.77;1.60;;;28.40;74.80;;;;;;5108991;28;20212;-57
2023/06/14 11:21:08;;;;;;;1.63;1.52;;;28.10;75.00;;;;;;5111630;28;20223;-58
2023/06/14 11:23:37;;;;;;;2.75;1.50;;;27.60;76.30;;;;;;5111768;28;20209;-55
2023/06/14 11:26:05;;;;;;;2.78;1.50;;;27.10;78.80;;;;;;5111271;28;20600;-56
2023/06/14 11:28:41;;;;;;;1.50;1.40;;;26.80;80.00;;;;;;5111759;28;20200;-56
2023/06/14 11:31:09;;;;;;;1.58;1.50;;;26.50;79.00;;;;;;5111281;28;20725;-56
2023/06/14 11:33:37;;;;;;;5.25;2.00;;;26.20;79.80;;;;;;5113051;28;20256;-59
2023/06/14 11:36:08;;;;;;;2.25;1.60;;;26.20;80.10;;;;;;5115055;28;20262;-57
2023/06/14 11:38:37;;;;;;;1.95;1.40;;;26.60;81.70;;;;;;5114973;28;20681;-55
2023/06/14 11:41:05;;;;;;;2.05;1.52;;;27.40;80.90;;;;;;5115101;28;20231;-55
2023/06/14 11:43:35;;;;;;;2.78;1.67;;;27.40;77.60;;;;;;5106757;28;20290;-55
2023/06/14 11:46:05;;;;;;;2.10;1.88;;;27.20;78.60;;;;;;5106010;28;20608;-57
2023/06/14 11:48:39;;;;;;;5.18;2.53;;;27.00;79.80;;;;;;5106129;28;20207;-56
2023/06/14 11:51:07;;;;;;;4.22;1.83;;;26.90;80.80;;;;;;5094507;28;20224;-57
2023/06/14 11:53:35;;;;;;;3.72;1.70;;;26.60;79.30;;;;;;5094661;28;20204;-56
2023/06/14 11:56:04;;;;;;;4.68;1.58;;;26.80;81.60;;;;;;5101142;28;20199;-55
2023/06/14 11:58:32;;;;;;;1.80;1.70;;;27.40;80.50;;;;;;5113945;28;20796;-56
2023/06/14 12:01:00;;;;;;;1.88;1.75;;;27.70;80.60;;;;;;5119148;22;20240;-58
2023/06/14 12:03:30;;;;;;;5.47;1.33;;;27.90;79.20;;;;;;5093831;28;20208;-58
2023/06/14 12:06:05;;;;;;;2.63;1.50;;;27.80;78.40;;;;;;5093861;28;20257;-58
2023/06/14 12:08:38;;;;;;;2.25;2.08;;;27.60;78.70;;;;;;5082078;28;20202;-56
2023/06/14 12:11:08;;;;;;;1.50;1.38;;;27.30;77.80;;;;;;5073905;28;20251;-56
2023/06/14 12:13:38;;;;;;;1.80;1.70;;;27.00;78.80;;;;;;5073974;28;20258;-58
2023/06/14 12:16:08;;;;;;;3.25;1.58;;;26.90;79.50;;;;;;5073475;28;20758;-56
2023/06/14 12:18:37;;;;;;;5.40;1.58;;;26.80;78.80;;;;;;5088846;28;20641;-56
2023/06/14 12:21:06;;;;;;;1.60;1.50;;;26.70;79.50;;;;;;5093621;28;20270;-57
2023/06/14 12:23:43;;;;;;;5.07;1.70;;;26.80;79.40;;;;;;5093543;28;20204;-56
2023/06/14 12:26:12;;;;;;;3.60;1.60;;;26.60;78.80;;;;;;5093473;28;20211;-55
2023/06/14 12:28:41;;;;;;;3.90;1.50;;;26.90;83.00;;;;;;5094076;28;20193;-57
2023/06/14 12:31:09;;;;;;;3.63;1.80;;;27.00;77.80;;;;;;5093641;28;20227;-56
2023/06/14 12:33:38;;;;;;;1.40;1.30;;;26.80;76.80;;;;;;5093007;28;20196;-57
2023/06/14 12:36:06;;;;;;;4.18;1.50;;;27.00;80.30;;;;;;5093423;28;20215;-57
2023/06/14 12:38:34;;;;;;;4.22;1.80;;;27.90;80.30;;;;;;5093703;28;20243;-56
2023/06/14 12:41:02;;;;;;;2.95;1.50;;;28.40;76.00;;;;;;5093381;28;20270;-57
2023/06/14 12:43:30;;;;;;;1.65;1.30;;;28.30;74.40;;;;;;5093352;28;20302;-57
2023/06/14 12:45:58;;;;;;;1.40;1.40;;;28.10;75.20;;;;;;5092816;28;20204;-56
2023/06/14 12:48:27;;;;;;;1.70;1.60;;;28.00;73.90;;;;;;5093412;28;20208;-59
2023/06/14 12:50:56;;;;;;;1.63;1.50;;;27.80;75.20;;;;;;5073265;28;20200;-57
2023/06/14 12:53:24;;;;;;;7.32;1.80;;;27.70;73.80;;;;;;5073164;28;20232;-57
2023/06/14 12:55:52;;;;;;;1.63;1.63;;;27.50;72.80;;;;;;5072086;28;20259;-59
2023/06/14 12:58:20;;;;;;;3.08;1.52;;;27.70;77.00;;;;;;5079432;28;20264;-58